Polar Ranger — WDC8652 — position and weather

sailwx.info

Track history (hours):
 
Tides and Currents Weather Stations Pressure Air Temp Water Temp Dewpoint Dewpoint Depression Visibility Wind Speed Wind Dir Waves Ship Positions

Polar Ranger

Owner: Dunlap Towing Co., LaConner, WA. More information available from US FCC via Universal Licensing System and Coast Guard Vessel Documentation Center.

Last reported at 2016-Aug-10 10:29 UTC. Time now 2016-Aug-24 23:13 UTC.
Position N 58°17' W 136°16'.
Warning: this ship's position is 14 days out of date.

Type: Towing. MMSI: 367090860.

Date/timePositionNaut miles runAvg speedWind from/ knotsBaromVisibWave heightAir tempDewpointWater temp
2016-Aug-10 10:29N 58°17' W 136°16'8 8.6
2016-Aug-10 09:34N 58°16' W 136°01'9 8.9
2016-Aug-10 08:33N 58°18' W 135°45'10 9.3
2016-Aug-10 07:29N 58°13' W 135°28'  
2016-Aug-07 16:30N 51°14' W 127°53'9 9.3
2016-Aug-07 15:34N 51°06' W 127°46'10 9.6
2016-Aug-07 14:33N 51°00' W 127°35'1010.1
2016-Aug-07 13:33N 50°54' W 127°22'1010.1
2016-Aug-07 12:34N 50°49' W 127°08'10 9.7
2016-Aug-07 11:30N 50°42' W 126°55'10 8.8
2016-Aug-07 10:25N 50°36' W 126°44'9 8.4
2016-Aug-07 09:19N 50°30' W 126°33'910.6
2016-Aug-07 08:30N 50°30' W 126°19'4010.2
2016-Aug-07 04:34N 50°13' W 125°22'7 7.0
2016-Aug-07 03:34N 50°06' W 125°18'4 3.7
2016-Aug-07 02:33N 50°03' W 125°14'4 3.7
2016-Aug-07 01:34N 49°60' W 125°12'7 6.5
2016-Aug-07 00:33N 49°55' W 125°04'8 8.4
2016-Aug-06 23:33N 49°50' W 124°54'8 8.5
2016-Aug-06 22:34N 49°45' W 124°44'9 8.8
2016-Aug-06 21:34N 49°40' W 124°33'9 9.3
2016-Aug-06 20:33N 49°34' W 124°22'9 9.3
2016-Aug-06 19:34N 49°29' W 124°09'9 9.1
2016-Aug-06 18:33N 49°24' W 123°58'9 8.9
2016-Aug-06 17:33N 49°19' W 123°47'9 8.8
2016-Aug-06 16:33N 49°14' W 123°36'9 9.1
2016-Aug-06 15:34N 49°07' W 123°26'10 9.7
2016-Aug-06 14:33N 49°01' W 123°15'10 9.7
2016-Aug-06 13:34N 48°55' W 123°04'9 9.4
2016-Aug-06 12:33N 48°48' W 122°53'10 9.8
2016-Aug-06 11:34N 48°41' W 122°43'10 9.5
2016-Aug-06 10:33N 48°32' W 122°44'9 9.4
2016-Aug-06 09:33N 48°23' W 122°45'19 9.3
2016-Aug-06 07:31N 48°04' W 122°38'3010.2
2016-Aug-06 04:34N 47°36' W 122°23'1 0.8
2016-Aug-06 03:34N 47°35' W 122°22'1 0.6
2016-Aug-06 02:34N 47°35' W 122°21'0 0.0
2016-Aug-06 01:34N 47°35' W 122°21'0 0.0
2016-Aug-05 22:34N 47°35' W 122°21'1 0.6
2016-Aug-05 21:34N 47°36' W 122°22'1211.9
2016-Aug-05 20:33N 47°47' W 122°25'1313.0
2016-Aug-05 19:33N 47°59' W 122°14'1 0.8
2016-Aug-05 18:33N 47°59' W 122°13'  
2016-Jul-31 21:33N 47°54' W 122°21'1212.3
2016-Jul-31 20:33N 47°43' W 122°26'6 6.1
2016-Jul-31 19:33N 47°37' W 122°24'8 8.2
2016-Jul-31 18:33N 47°45' W 122°27'9 9.2
2016-Jul-31 17:33N 47°54' W 122°30'10 8.2
2016-Jul-31 16:22N 48°01' W 122°39'6 7.4
2016-Jul-31 15:33N 48°07' W 122°41'6 6.0
2016-Jul-31 14:34N 48°11' W 122°48'8 8.1
2016-Jul-31 13:33N 48°19' W 122°47'1212.0
2016-Jul-31 12:33N 48°31' W 122°45'1111.2
2016-Jul-31 11:33N 48°42' W 122°45'1110.5
2016-Jul-31 10:33N 48°49' W 122°57'  
Track history (hours):
 
Tides and Currents Weather Stations Pressure Air Temp Water Temp Dewpoint Dewpoint Depression Visibility Wind Speed Wind Dir Waves Ship Positions

Polar Ranger

Owner: Dunlap Towing Co., LaConner, WA. More information available from US FCC via Universal Licensing System and Coast Guard Vessel Documentation Center.

Last reported at 2016-Aug-10 10:29 UTC. Time now 2016-Aug-24 23:13 UTC.
Position N 58°17' W 136°16'.
Warning: this ship's position is 14 days out of date.

Type: Towing. MMSI: 367090860.

Date/timePositionNaut miles runAvg speedWind from/ knotsBaromVisibWave heightAir tempDewpointWater temp
2016-Aug-10 10:29N 58°17' W 136°16'8 8.6
2016-Aug-10 09:34N 58°16' W 136°01'9 8.9
2016-Aug-10 08:33N 58°18' W 135°45'10 9.3
2016-Aug-10 07:29N 58°13' W 135°28'  
2016-Aug-07 16:30N 51°14' W 127°53'9 9.3
2016-Aug-07 15:34N 51°06' W 127°46'10 9.6
2016-Aug-07 14:33N 51°00' W 127°35'1010.1
2016-Aug-07 13:33N 50°54' W 127°22'1010.1
2016-Aug-07 12:34N 50°49' W 127°08'10 9.7
2016-Aug-07 11:30N 50°42' W 126°55'10 8.8
2016-Aug-07 10:25N 50°36' W 126°44'9 8.4
2016-Aug-07 09:19N 50°30' W 126°33'910.6
2016-Aug-07 08:30N 50°30' W 126°19'4010.2
2016-Aug-07 04:34N 50°13' W 125°22'7 7.0
2016-Aug-07 03:34N 50°06' W 125°18'4 3.7
2016-Aug-07 02:33N 50°03' W 125°14'4 3.7
2016-Aug-07 01:34N 49°60' W 125°12'7 6.5
2016-Aug-07 00:33N 49°55' W 125°04'8 8.4
2016-Aug-06 23:33N 49°50' W 124°54'8 8.5
2016-Aug-06 22:34N 49°45' W 124°44'9 8.8
2016-Aug-06 21:34N 49°40' W 124°33'9 9.3
2016-Aug-06 20:33N 49°34' W 124°22'9 9.3
2016-Aug-06 19:34N 49°29' W 124°09'9 9.1
2016-Aug-06 18:33N 49°24' W 123°58'9 8.9
2016-Aug-06 17:33N 49°19' W 123°47'9 8.8
2016-Aug-06 16:33N 49°14' W 123°36'9 9.1
2016-Aug-06 15:34N 49°07' W 123°26'10 9.7
2016-Aug-06 14:33N 49°01' W 123°15'10 9.7
2016-Aug-06 13:34N 48°55' W 123°04'9 9.4
2016-Aug-06 12:33N 48°48' W 122°53'10 9.8
2016-Aug-06 11:34N 48°41' W 122°43'10 9.5
2016-Aug-06 10:33N 48°32' W 122°44'9 9.4
2016-Aug-06 09:33N 48°23' W 122°45'19 9.3
2016-Aug-06 07:31N 48°04' W 122°38'3010.2
2016-Aug-06 04:34N 47°36' W 122°23'1 0.8
2016-Aug-06 03:34N 47°35' W 122°22'1 0.6
2016-Aug-06 02:34N 47°35' W 122°21'0 0.0
2016-Aug-06 01:34N 47°35' W 122°21'0 0.0
2016-Aug-05 22:34N 47°35' W 122°21'1 0.6
2016-Aug-05 21:34N 47°36' W 122°22'1211.9
2016-Aug-05 20:33N 47°47' W 122°25'1313.0
2016-Aug-05 19:33N 47°59' W 122°14'1 0.8
2016-Aug-05 18:33N 47°59' W 122°13'  
2016-Jul-31 21:33N 47°54' W 122°21'1212.3
2016-Jul-31 20:33N 47°43' W 122°26'6 6.1
2016-Jul-31 19:33N 47°37' W 122°24'8 8.2
2016-Jul-31 18:33N 47°45' W 122°27'9 9.2
2016-Jul-31 17:33N 47°54' W 122°30'10 8.2
2016-Jul-31 16:22N 48°01' W 122°39'6 7.4
2016-Jul-31 15:33N 48°07' W 122°41'6 6.0
2016-Jul-31 14:34N 48°11' W 122°48'8 8.1
2016-Jul-31 13:33N 48°19' W 122°47'1212.0
2016-Jul-31 12:33N 48°31' W 122°45'1111.2
2016-Jul-31 11:33N 48°42' W 122°45'1110.5
2016-Jul-31 10:33N 48°49' W 122°57'  

Dump ship's entire track history